sensor_id;sensor_type;location;lat;lon;timestamp;pressure;altitude;pressure_sealevel;temperature;humidity
40766;BME280;26474;52.556;13.420;2022-07-06T00:00:12;101427.41;;;19.58;44.89
40766;BME280;26474;52.556;13.420;2022-07-06T00:02:39;101428.13;;;19.60;45.22
40766;BME280;26474;52.556;13.420;2022-07-06T00:05:06;101428.56;;;19.56;45.25
40766;BME280;26474;52.556;13.420;2022-07-06T00:07:32;101425.94;;;19.44;45.61
40766;BME280;26474;52.556;13.420;2022-07-06T00:09:59;101424.59;;;19.39;45.80
40766;BME280;26474;52.556;13.420;2022-07-06T00:12:25;101427.09;;;19.42;45.77
40766;BME280;26474;52.556;13.420;2022-07-06T00:14:52;101425.59;;;19.38;45.65
40766;BME280;26474;52.556;13.420;2022-07-06T00:17:18;101425.34;;;19.41;45.98
40766;BME280;26474;52.556;13.420;2022-07-06T00:19:45;101434.56;;;19.40;46.01
40766;BME280;26474;52.556;13.420;2022-07-06T00:22:11;101423.63;;;19.40;46.14
40766;BME280;26474;52.556;13.420;2022-07-06T00:24:38;101431.06;;;19.38;46.19
40766;BME280;26474;52.556;13.420;2022-07-06T00:27:04;101426.19;;;19.32;46.28
40766;BME280;26474;52.556;13.420;2022-07-06T00:29:30;101431.06;;;19.18;46.65
40766;BME280;26474;52.556;13.420;2022-07-06T00:31:57;101426.91;;;19.24;46.75
40766;BME280;26474;52.556;13.420;2022-07-06T00:34:24;101427.19;;;19.21;46.91
40766;BME280;26474;52.556;13.420;2022-07-06T00:36:50;101428.19;;;19.20;47.07
40766;BME280;26474;52.556;13.420;2022-07-06T00:39:16;101436.09;;;19.23;47.21
40766;BME280;26474;52.556;13.420;2022-07-06T00:41:45;101439.53;;;19.15;47.43
40766;BME280;26474;52.556;13.420;2022-07-06T00:44:11;101438.97;;;19.22;47.17
40766;BME280;26474;52.556;13.420;2022-07-06T00:46:37;101434.78;;;19.17;47.13
40766;BME280;26474;52.556;13.420;2022-07-06T00:49:04;101430.78;;;19.22;47.41
40766;BME280;26474;52.556;13.420;2022-07-06T00:51:32;101432.19;;;19.16;47.39
40766;BME280;26474;52.556;13.420;2022-07-06T00:54:03;101434.22;;;19.14;47.59
40766;BME280;26474;52.556;13.420;2022-07-06T00:56:31;101443.56;;;19.11;47.78
40766;BME280;26474;52.556;13.420;2022-07-06T00:59:00;101437.38;;;19.09;48.01
40766;BME280;26474;52.556;13.420;2022-07-06T01:01:27;101444.56;;;19.10;47.75
40766;BME280;26474;52.556;13.420;2022-07-06T01:03:54;101446.88;;;19.05;47.83
40766;BME280;26474;52.556;13.420;2022-07-06T01:06:21;101451.47;;;19.05;47.79
40766;BME280;26474;52.556;13.420;2022-07-06T01:08:47;101443.13;;;19.06;47.63
40766;BME280;26474;52.556;13.420;2022-07-06T01:11:14;101452.59;;;19.02;48.18
40766;BME280;26474;52.556;13.420;2022-07-06T01:13:41;101448.72;;;18.95;47.97
40766;BME280;26474;52.556;13.420;2022-07-06T01:16:07;101440.66;;;18.94;48.12
40766;BME280;26474;52.556;13.420;2022-07-06T01:18:34;101439.78;;;18.93;48.23
40766;BME280;26474;52.556;13.420;2022-07-06T01:21:08;101441.03;;;18.89;48.27
40766;BME280;26474;52.556;13.420;2022-07-06T01:23:40;101440.59;;;18.84;48.17
40766;BME280;26474;52.556;13.420;2022-07-06T01:26:09;101437.91;;;18.94;48.28
40766;BME280;26474;52.556;13.420;2022-07-06T01:28:36;101431.09;;;18.88;48.13
40766;BME280;26474;52.556;13.420;2022-07-06T01:31:02;101437.84;;;18.84;48.21
40766;BME280;26474;52.556;13.420;2022-07-06T01:33:29;101441.31;;;18.86;48.47
40766;BME280;26474;52.556;13.420;2022-07-06T01:35:55;101445.31;;;18.82;48.40
40766;BME280;26474;52.556;13.420;2022-07-06T01:38:22;101437.84;;;18.84;48.11
40766;BME280;26474;52.556;13.420;2022-07-06T01:40:49;101430.38;;;18.86;48.33
40766;BME280;26474;52.556;13.420;2022-07-06T01:43:15;101419.59;;;18.84;48.40
40766;BME280;26474;52.556;13.420;2022-07-06T01:45:41;101430.97;;;18.90;48.29
40766;BME280;26474;52.556;13.420;2022-07-06T01:48:08;101431.38;;;18.85;48.43
40766;BME280;26474;52.556;13.420;2022-07-06T01:50:34;101424.47;;;18.81;48.85
40766;BME280;26474;52.556;13.420;2022-07-06T01:53:01;101427.19;;;18.81;48.67
40766;BME280;26474;52.556;13.420;2022-07-06T01:55:27;101428.94;;;18.82;49.05
40766;BME280;26474;52.556;13.420;2022-07-06T01:57:53;101424.47;;;18.81;49.05
40766;BME280;26474;52.556;13.420;2022-07-06T02:00:20;101424.59;;;18.79;49.25
40766;BME280;26474;52.556;13.420;2022-07-06T02:02:46;101427.06;;;18.82;48.97
40766;BME280;26474;52.556;13.420;2022-07-06T02:05:13;101431.38;;;18.85;48.89
40766;BME280;26474;52.556;13.420;2022-07-06T02:07:39;101430.94;;;18.80;48.86
40766;BME280;26474;52.556;13.420;2022-07-06T02:10:06;101435.13;;;18.84;48.38
40766;BME280;26474;52.556;13.420;2022-07-06T02:12:32;101439.56;;;18.85;48.37
40766;BME280;26474;52.556;13.420;2022-07-06T02:14:58;101450.06;;;18.80;48.11
40766;BME280;26474;52.556;13.420;2022-07-06T02:17:25;101457.84;;;18.84;48.10
40766;BME280;26474;52.556;13.420;2022-07-06T02:19:51;101462.91;;;18.89;48.12
40766;BME280;26474;52.556;13.420;2022-07-06T02:22:18;101476.69;;;18.87;48.16
40766;BME280;26474;52.556;13.420;2022-07-06T02:24:44;101483.03;;;18.88;48.68
40766;BME280;26474;52.556;13.420;2022-07-06T02:27:10;101480.28;;;18.88;49.89
40766;BME280;26474;52.556;13.420;2022-07-06T02:29:37;101480.78;;;18.93;50.90
40766;BME280;26474;52.556;13.420;2022-07-06T02:32:03;101488.63;;;18.86;52.28
40766;BME280;26474;52.556;13.420;2022-07-06T02:34:30;101476.38;;;18.81;53.88
40766;BME280;26474;52.556;13.420;2022-07-06T02:36:56;101480.94;;;18.71;56.20
40766;BME280;26474;52.556;13.420;2022-07-06T02:39:22;101473.56;;;18.62;57.17
40766;BME280;26474;52.556;13.420;2022-07-06T02:41:49;101477.94;;;18.53;57.83
40766;BME280;26474;52.556;13.420;2022-07-06T02:44:15;101484.47;;;18.41;59.33
40766;BME280;26474;52.556;13.420;2022-07-06T02:46:42;101480.41;;;18.35;59.78
40766;BME280;26474;52.556;13.420;2022-07-06T02:49:09;101477.75;;;18.24;61.03
40766;BME280;26474;52.556;13.420;2022-07-06T02:51:35;101478.56;;;18.15;61.63
40766;BME280;26474;52.556;13.420;2022-07-06T02:54:02;101484.88;;;18.15;61.71
40766;BME280;26474;52.556;13.420;2022-07-06T02:56:28;101480.69;;;18.11;62.57
40766;BME280;26474;52.556;13.420;2022-07-06T02:58:55;101482.81;;;18.08;62.80
40766;BME280;26474;52.556;13.420;2022-07-06T03:01:21;101475.91;;;18.04;62.41
40766;BME280;26474;52.556;13.420;2022-07-06T03:03:48;101481.09;;;18.07;62.66
40766;BME280;26474;52.556;13.420;2022-07-06T03:06:14;101471.56;;;18.01;63.53
40766;BME280;26474;52.556;13.420;2022-07-06T03:08:41;101473.16;;;18.04;63.92
40766;BME280;26474;52.556;13.420;2022-07-06T03:11:07;101477.03;;;18.01;63.69
40766;BME280;26474;52.556;13.420;2022-07-06T03:13:34;101484.72;;;17.96;64.18
40766;BME280;26474;52.556;13.420;2022-07-06T03:16:01;101487.34;;;17.98;64.17
40766;BME280;26474;52.556;13.420;2022-07-06T03:18:27;101492.16;;;17.94;64.38
40766;BME280;26474;52.556;13.420;2022-07-06T03:20:55;101489.09;;;17.87;63.83
40766;BME280;26474;52.556;13.420;2022-07-06T03:23:21;101487.75;;;17.82;64.06
40766;BME280;26474;52.556;13.420;2022-07-06T03:25:48;101489.22;;;17.86;63.21
40766;BME280;26474;52.556;13.420;2022-07-06T03:28:14;101490.09;;;17.86;63.42
40766;BME280;26474;52.556;13.420;2022-07-06T03:30:40;101488.38;;;17.85;63.32
40766;BME280;26474;52.556;13.420;2022-07-06T03:33:07;101495.56;;;17.86;63.24
40766;BME280;26474;52.556;13.420;2022-07-06T03:35:33;101492.81;;;17.86;63.47
40766;BME280;26474;52.556;13.420;2022-07-06T03:38:00;101496.03;;;17.91;62.98
40766;BME280;26474;52.556;13.420;2022-07-06T03:40:26;101491.84;;;17.87;62.31
40766;BME280;26474;52.556;13.420;2022-07-06T03:42:52;101491.84;;;17.87;62.75
40766;BME280;26474;52.556;13.420;2022-07-06T03:45:19;101490.38;;;17.83;62.56
40766;BME280;26474;52.556;13.420;2022-07-06T03:47:45;101479.06;;;17.88;62.79
40766;BME280;26474;52.556;13.420;2022-07-06T03:50:12;101484.25;;;17.91;62.94
40766;BME280;26474;52.556;13.420;2022-07-06T03:52:38;101486.97;;;17.91;63.46
40766;BME280;26474;52.556;13.420;2022-07-06T03:55:09;101482.13;;;17.94;63.12
40766;BME280;26474;52.556;13.420;2022-07-06T03:57:38;101487.34;;;17.98;62.33
40766;BME280;26474;52.556;13.420;2022-07-06T04:00:08;101488.22;;;17.98;62.00
40766;BME280;26474;52.556;13.420;2022-07-06T04:02:34;101486.22;;;18.00;62.18
40766;BME280;26474;52.556;13.420;2022-07-06T04:05:01;101476.50;;;18.07;61.92
40766;BME280;26474;52.556;13.420;2022-07-06T04:07:27;101483.69;;;18.08;61.28
40766;BME280;26474;52.556;13.420;2022-07-06T04:09:54;101483.56;;;18.10;60.65
40766;BME280;26474;52.556;13.420;2022-07-06T04:12:20;101491.75;;;18.10;61.18
40766;BME280;26474;52.556;13.420;2022-07-06T04:14:47;101490.94;;;17.98;61.14
40766;BME280;26474;52.556;13.420;2022-07-06T04:17:13;101498.88;;;18.01;59.63
40766;BME280;26474;52.556;13.420;2022-07-06T04:19:58;101492.00;;;18.07;59.21
40766;BME280;26474;52.556;13.420;2022-07-06T04:22:25;101485.09;;;18.03;59.88
40766;BME280;26474;52.556;13.420;2022-07-06T04:24:51;101492.94;;;18.17;58.23
40766;BME280;26474;52.556;13.420;2022-07-06T04:27:18;101492.88;;;18.28;58.98
40766;BME280;26474;52.556;13.420;2022-07-06T04:29:44;101493.59;;;18.30;58.99
40766;BME280;26474;52.556;13.420;2022-07-06T04:32:10;101495.88;;;18.25;57.79
40766;BME280;26474;52.556;13.420;2022-07-06T04:34:37;101489.88;;;18.31;57.37
40766;BME280;26474;52.556;13.420;2022-07-06T04:37:03;101489.00;;;18.31;57.24
40766;BME280;26474;52.556;13.420;2022-07-06T04:39:30;101490.59;;;18.33;56.62
40766;BME280;26474;52.556;13.420;2022-07-06T04:41:58;101491.59;;;18.32;57.16
40766;BME280;26474;52.556;13.420;2022-07-06T04:44:24;101490.59;;;18.33;57.13
40766;BME280;26474;52.556;13.420;2022-07-06T04:46:50;101492.69;;;18.20;57.10
40766;BME280;26474;52.556;13.420;2022-07-06T04:49:17;101491.13;;;18.27;56.34
40766;BME280;26474;52.556;13.420;2022-07-06T04:51:43;101495.59;;;18.28;55.94
40766;BME280;26474;52.556;13.420;2022-07-06T04:54:09;101491.22;;;18.16;57.02
40766;BME280;26474;52.556;13.420;2022-07-06T04:56:36;101484.34;;;18.21;56.21
40766;BME280;26474;52.556;13.420;2022-07-06T04:59:02;101483.34;;;18.43;55.45
40766;BME280;26474;52.556;13.420;2022-07-06T05:01:29;101481.53;;;18.33;56.42
40766;BME280;26474;52.556;13.420;2022-07-06T05:03:55;101481.69;;;18.10;57.23
40766;BME280;26474;52.556;13.420;2022-07-06T05:06:22;101481.03;;;18.18;56.93
40766;BME280;26474;52.556;13.420;2022-07-06T05:08:48;101485.81;;;18.25;55.89
40766;BME280;26474;52.556;13.420;2022-07-06T05:11:14;101493.78;;;18.38;55.80
40766;BME280;26474;52.556;13.420;2022-07-06T05:13:41;101496.75;;;18.46;55.55
40766;BME280;26474;52.556;13.420;2022-07-06T05:16:08;101500.06;;;18.50;55.47
40766;BME280;26474;52.556;13.420;2022-07-06T05:18:34;101501.22;;;18.47;55.79
40766;BME280;26474;52.556;13.420;2022-07-06T05:21:01;101503.84;;;18.38;54.46
40766;BME280;26474;52.556;13.420;2022-07-06T05:23:27;101499.22;;;18.49;54.68
40766;BME280;26474;52.556;13.420;2022-07-06T05:25:54;101494.16;;;18.66;54.07
40766;BME280;26474;52.556;13.420;2022-07-06T05:28:20;101499.53;;;18.77;54.27
40766;BME280;26474;52.556;13.420;2022-07-06T05:30:47;101493.69;;;18.91;53.55
40766;BME280;26474;52.556;13.420;2022-07-06T05:33:14;101499.56;;;18.86;53.21
40766;BME280;26474;52.556;13.420;2022-07-06T05:35:41;101497.91;;;18.95;52.58
40766;BME280;26474;52.556;13.420;2022-07-06T05:38:17;101495.50;;;19.11;52.41
40766;BME280;26474;52.556;13.420;2022-07-06T05:40:45;101493.84;;;19.30;51.59
40766;BME280;26474;52.556;13.420;2022-07-06T05:43:12;101490.09;;;19.31;52.03
40766;BME280;26474;52.556;13.420;2022-07-06T05:45:38;101489.44;;;19.48;51.38
40766;BME280;26474;52.556;13.420;2022-07-06T05:48:05;101488.75;;;19.65;50.19
40766;BME280;26474;52.556;13.420;2022-07-06T05:50:50;101499.16;;;19.91;49.55
40766;BME280;26474;52.556;13.420;2022-07-06T05:53:17;101489.78;;;20.12;49.17
40766;BME280;26474;52.556;13.420;2022-07-06T05:55:46;101495.28;;;20.03;48.85
40766;BME280;26474;52.556;13.420;2022-07-06T05:58:13;101493.66;;;20.20;48.11
40766;BME280;26474;52.556;13.420;2022-07-06T06:00:40;101490.09;;;20.85;46.70
40766;BME280;26474;52.556;13.420;2022-07-06T06:03:07;101486.63;;;21.48;45.09
40766;BME280;26474;52.556;13.420;2022-07-06T06:05:33;101481.81;;;22.30;43.68
40766;BME280;26474;52.556;13.420;2022-07-06T06:08:00;101480.88;;;23.00;42.68
40766;BME280;26474;52.556;13.420;2022-07-06T06:10:26;101482.22;;;23.80;40.55
40766;BME280;26474;52.556;13.420;2022-07-06T06:12:53;101483.03;;;25.10;37.72
40766;BME280;26474;52.556;13.420;2022-07-06T06:15:19;101494.78;;;25.97;36.25
40766;BME280;26474;52.556;13.420;2022-07-06T06:17:46;101481.31;;;26.78;34.17
40766;BME280;26474;52.556;13.420;2022-07-06T06:20:14;101496.78;;;26.87;33.08
40766;BME280;26474;52.556;13.420;2022-07-06T06:22:49;101498.84;;;27.58;31.88
40766;BME280;26474;52.556;13.420;2022-07-06T06:25:17;101504.81;;;28.13;31.01
40766;BME280;26474;52.556;13.420;2022-07-06T06:27:44;101504.06;;;28.40;30.94
40766;BME280;26474;52.556;13.420;2022-07-06T06:30:11;101498.03;;;28.65;30.77
40766;BME280;26474;52.556;13.420;2022-07-06T06:32:39;101501.19;;;28.34;31.06
40766;BME280;26474;52.556;13.420;2022-07-06T06:35:06;101496.63;;;28.05;31.43
40766;BME280;26474;52.556;13.420;2022-07-06T06:37:33;101500.03;;;27.35;32.54
40766;BME280;26474;52.556;13.420;2022-07-06T06:40:01;101502.56;;;27.00;33.02
40766;BME280;26474;52.556;13.420;2022-07-06T06:42:27;101495.34;;;27.50;32.33
40766;BME280;26474;52.556;13.420;2022-07-06T06:44:54;101500.88;;;28.01;31.23
40766;BME280;26474;52.556;13.420;2022-07-06T06:47:20;101498.59;;;28.81;29.51
40766;BME280;26474;52.556;13.420;2022-07-06T06:49:47;101497.53;;;29.45;29.14
40766;BME280;26474;52.556;13.420;2022-07-06T06:52:13;101491.84;;;29.80;28.55
40766;BME280;26474;52.556;13.420;2022-07-06T06:55:00;101492.81;;;30.13;27.75
40766;BME280;26474;52.556;13.420;2022-07-06T06:57:26;101494.53;;;30.21;27.98
40766;BME280;26474;52.556;13.420;2022-07-06T06:59:55;101497.63;;;29.78;27.65
40766;BME280;26474;52.556;13.420;2022-07-06T07:02:21;101496.97;;;29.69;27.77
40766;BME280;26474;52.556;13.420;2022-07-06T07:04:48;101500.47;;;28.74;29.32
40766;BME280;26474;52.556;13.420;2022-07-06T07:07:14;101510.38;;;28.13;30.02
40766;BME280;26474;52.556;13.420;2022-07-06T07:09:41;101503.03;;;27.18;31.53
40766;BME280;26474;52.556;13.420;2022-07-06T07:12:08;101504.88;;;26.36;32.53
40766;BME280;26474;52.556;13.420;2022-07-06T07:14:36;101505.25;;;26.10;32.66
40766;BME280;26474;52.556;13.420;2022-07-06T07:17:02;101500.56;;;26.56;32.64
40766;BME280;26474;52.556;13.420;2022-07-06T07:19:29;101503.22;;;26.50;32.87
40766;BME280;26474;52.556;13.420;2022-07-06T07:21:55;101511.25;;;25.91;32.67
40766;BME280;26474;52.556;13.420;2022-07-06T07:24:22;101510.31;;;26.07;31.71
40766;BME280;26474;52.556;13.420;2022-07-06T07:26:48;101507.09;;;26.18;31.21
40766;BME280;26474;52.556;13.420;2022-07-06T07:29:15;101508.00;;;25.87;31.12
40766;BME280;26474;52.556;13.420;2022-07-06T07:31:41;101507.31;;;25.85;31.24
40766;BME280;26474;52.556;13.420;2022-07-06T07:34:08;101506.81;;;25.82;31.61
40766;BME280;26474;52.556;13.420;2022-07-06T07:36:34;101523.72;;;25.87;31.14
40766;BME280;26474;52.556;13.420;2022-07-06T07:39:02;101522.59;;;25.73;31.40
40766;BME280;26474;52.556;13.420;2022-07-06T07:41:28;101507.94;;;25.33;32.50
40766;BME280;26474;52.556;13.420;2022-07-06T07:43:55;101512.00;;;24.90;33.25
40766;BME280;26474;52.556;13.420;2022-07-06T07:46:21;101510.88;;;24.60;33.96
40766;BME280;26474;52.556;13.420;2022-07-06T07:48:48;101513.66;;;24.28;34.44
40766;BME280;26474;52.556;13.420;2022-07-06T07:51:14;101516.03;;;24.14;35.07
40766;BME280;26474;52.556;13.420;2022-07-06T07:53:41;101521.81;;;23.79;35.92
40766;BME280;26474;52.556;13.420;2022-07-06T07:56:07;101520.38;;;23.59;35.90
40766;BME280;26474;52.556;13.420;2022-07-06T07:58:33;101520.44;;;22.99;37.18
40766;BME280;26474;52.556;13.420;2022-07-06T08:01:00;101519.16;;;22.67;37.82
40766;BME280;26474;52.556;13.420;2022-07-06T08:03:27;101523.19;;;22.11;38.64
40766;BME280;26474;52.556;13.420;2022-07-06T08:05:53;101516.97;;;22.09;38.63
40766;BME280;26474;52.556;13.420;2022-07-06T08:08:20;101522.09;;;22.04;39.13
40766;BME280;26474;52.556;13.420;2022-07-06T08:10:47;101525.47;;;21.71;40.21
40766;BME280;26474;52.556;13.420;2022-07-06T08:13:34;101527.81;;;21.48;39.80
40766;BME280;26474;52.556;13.420;2022-07-06T08:16:00;101523.94;;;21.86;38.80
40766;BME280;26474;52.556;13.420;2022-07-06T08:18:27;101519.31;;;22.66;37.45
40766;BME280;26474;52.556;13.420;2022-07-06T08:20:54;101523.38;;;22.79;36.54
40766;BME280;26474;52.556;13.420;2022-07-06T08:23:43;101520.88;;;22.68;36.71
40766;BME280;26474;52.556;13.420;2022-07-06T08:26:09;101521.59;;;22.44;37.32
40766;BME280;26474;52.556;13.420;2022-07-06T08:28:42;101527.50;;;22.14;37.44
40766;BME280;26474;52.556;13.420;2022-07-06T08:31:09;101528.56;;;21.40;37.08
40766;BME280;26474;52.556;13.420;2022-07-06T08:33:55;101520.38;;;21.76;37.19
40766;BME280;26474;52.556;13.420;2022-07-06T08:36:22;101522.97;;;22.48;37.00
40766;BME280;26474;52.556;13.420;2022-07-06T08:38:49;101521.31;;;22.55;36.77
40766;BME280;26474;52.556;13.420;2022-07-06T08:41:21;101528.75;;;22.63;36.30
40766;BME280;26474;52.556;13.420;2022-07-06T08:43:52;101523.03;;;22.56;36.16
40766;BME280;26474;52.556;13.420;2022-07-06T08:46:21;101531.97;;;22.33;37.15
40766;BME280;26474;52.556;13.420;2022-07-06T08:48:48;101526.16;;;22.18;37.17
40766;BME280;26474;52.556;13.420;2022-07-06T08:51:15;101534.38;;;21.82;37.50
40766;BME280;26474;52.556;13.420;2022-07-06T08:53:43;101529.78;;;21.55;37.37
40766;BME280;26474;52.556;13.420;2022-07-06T08:56:12;101534.91;;;21.41;37.74
40766;BME280;26474;52.556;13.420;2022-07-06T08:58:39;101532.09;;;21.23;38.03
40766;BME280;26474;52.556;13.420;2022-07-06T09:01:11;101541.78;;;21.17;38.12
40766;BME280;26474;52.556;13.420;2022-07-06T09:03:40;101531.50;;;21.19;37.48
40766;BME280;26474;52.556;13.420;2022-07-06T09:06:06;101536.25;;;21.36;36.84
40766;BME280;26474;52.556;13.420;2022-07-06T09:08:33;101534.25;;;21.29;36.56
40766;BME280;26474;52.556;13.420;2022-07-06T09:11:03;101536.66;;;21.42;36.30
40766;BME280;26474;52.556;13.420;2022-07-06T09:13:29;101538.19;;;21.72;36.00
40766;BME280;26474;52.556;13.420;2022-07-06T09:16:08;101528.91;;;22.18;35.18
40766;BME280;26474;52.556;13.420;2022-07-06T09:18:55;101531.16;;;22.40;34.16
40766;BME280;26474;52.556;13.420;2022-07-06T09:21:30;101531.78;;;22.52;33.93
40766;BME280;26474;52.556;13.420;2022-07-06T09:24:00;101528.59;;;22.65;33.33
40766;BME280;26474;52.556;13.420;2022-07-06T09:26:29;101530.16;;;22.41;33.80
40766;BME280;26474;52.556;13.420;2022-07-06T09:28:56;101531.81;;;22.34;34.50
40766;BME280;26474;52.556;13.420;2022-07-06T09:31:23;101536.88;;;21.93;34.48
40766;BME280;26474;52.556;13.420;2022-07-06T09:34:01;101537.53;;;22.05;34.38
40766;BME280;26474;52.556;13.420;2022-07-06T09:36:47;101535.72;;;21.78;34.77
40766;BME280;26474;52.556;13.420;2022-07-06T09:41:44;101541.78;;;21.54;34.34
40766;BME280;26474;52.556;13.420;2022-07-06T09:44:11;101542.31;;;21.58;34.29
40766;BME280;26474;52.556;13.420;2022-07-06T09:46:46;101544.50;;;21.54;35.07
40766;BME280;26474;52.556;13.420;2022-07-06T09:49:16;101544.09;;;21.49;35.41
40766;BME280;26474;52.556;13.420;2022-07-06T09:51:44;101541.78;;;21.54;34.94
40766;BME280;26474;52.556;13.420;2022-07-06T09:54:10;101551.00;;;21.53;35.32
40766;BME280;26474;52.556;13.420;2022-07-06T09:56:42;101548.69;;;21.58;35.42
40766;BME280;26474;52.556;13.420;2022-07-06T09:59:12;101547.91;;;21.66;35.78
40766;BME280;26474;52.556;13.420;2022-07-06T10:01:40;101545.72;;;21.69;36.09
40766;BME280;26474;52.556;13.420;2022-07-06T10:04:11;101551.72;;;21.55;35.99
40766;BME280;26474;52.556;13.420;2022-07-06T10:06:40;101552.56;;;21.28;35.68
40766;BME280;26474;52.556;13.420;2022-07-06T10:09:08;101546.09;;;21.20;35.84
40766;BME280;26474;52.556;13.420;2022-07-06T10:11:58;101551.16;;;21.15;36.58
40766;BME280;26474;52.556;13.420;2022-07-06T10:14:30;101553.53;;;21.00;37.76
40766;BME280;26474;52.556;13.420;2022-07-06T10:16:59;101555.03;;;20.85;38.57
40766;BME280;26474;52.556;13.420;2022-07-06T10:19:27;101546.19;;;21.00;38.76
40766;BME280;26474;52.556;13.420;2022-07-06T10:21:56;101554.81;;;21.05;38.76
40766;BME280;26474;52.556;13.420;2022-07-06T10:24:25;101551.09;;;20.97;39.17
40766;BME280;26474;52.556;13.420;2022-07-06T10:26:53;101551.34;;;21.03;39.18
40766;BME280;26474;52.556;13.420;2022-07-06T10:29:21;101559.81;;;21.29;39.39
40766;BME280;26474;52.556;13.420;2022-07-06T10:31:48;101558.94;;;21.19;38.83
40766;BME280;26474;52.556;13.420;2022-07-06T10:34:18;101554.91;;;21.14;38.86
40766;BME280;26474;52.556;13.420;2022-07-06T10:36:52;101545.81;;;21.23;38.90
40766;BME280;26474;52.556;13.420;2022-07-06T10:39:36;101546.69;;;21.23;39.23
40766;BME280;26474;52.556;13.420;2022-07-06T10:42:50;101543.50;;;21.55;38.60
40766;BME280;26474;52.556;13.420;2022-07-06T10:50:50;101544.53;;;21.72;36.94
40766;BME280;26474;52.556;13.420;2022-07-06T10:53:26;101545.72;;;21.69;36.86
40766;BME280;26474;52.556;13.420;2022-07-06T10:55:56;101533.19;;;21.85;37.26
40766;BME280;26474;52.556;13.420;2022-07-06T11:01:12;101527.84;;;22.01;36.73
40766;BME280;26474;52.556;13.420;2022-07-06T11:03:41;101532.22;;;22.04;36.51
40766;BME280;26474;52.556;13.420;2022-07-06T11:06:19;101539.16;;;21.98;37.03
40766;BME280;26474;52.556;13.420;2022-07-06T11:08:57;101530.16;;;22.06;36.41
40766;BME280;26474;52.556;13.420;2022-07-06T11:19:20;101527.72;;;22.20;36.36
40766;BME280;26474;52.556;13.420;2022-07-06T11:21:55;101535.66;;;22.06;35.74
40766;BME280;26474;52.556;13.420;2022-07-06T11:24:27;101530.75;;;21.99;36.44
40766;BME280;26474;52.556;13.420;2022-07-06T11:26:55;101542.63;;;21.82;36.65
40766;BME280;26474;52.556;13.420;2022-07-06T11:29:24;101540.72;;;21.83;36.69
40766;BME280;26474;52.556;13.420;2022-07-06T11:31:53;101540.28;;;21.60;37.32
40766;BME280;26474;52.556;13.420;2022-07-06T11:34:26;101537.97;;;21.38;37.59
40766;BME280;26474;52.556;13.420;2022-07-06T11:37:00;101533.97;;;21.32;37.41
40766;BME280;26474;52.556;13.420;2022-07-06T11:39:34;101529.19;;;21.34;37.87
40766;BME280;26474;52.556;13.420;2022-07-06T11:42:02;101540.66;;;21.47;37.71
40766;BME280;26474;52.556;13.420;2022-07-06T11:44:30;101541.69;;;21.64;37.47
40766;BME280;26474;52.556;13.420;2022-07-06T11:46:57;101535.03;;;21.66;37.03
40766;BME280;26474;52.556;13.420;2022-07-06T11:49:25;101538.19;;;21.72;36.35
40766;BME280;26474;52.556;13.420;2022-07-06T11:51:52;101530.66;;;21.74;36.23
40766;BME280;26474;52.556;13.420;2022-07-06T11:54:20;101533.06;;;21.59;36.01
40766;BME280;26474;52.556;13.420;2022-07-06T11:56:52;101531.03;;;21.61;35.93
40766;BME280;26474;52.556;13.420;2022-07-06T11:59:24;101526.28;;;21.81;36.13
40766;BME280;26474;52.556;13.420;2022-07-06T12:02:17;101520.47;;;22.02;36.11
40766;BME280;26474;52.556;13.420;2022-07-06T12:04:45;101522.16;;;22.12;36.09
40766;BME280;26474;52.556;13.420;2022-07-06T12:07:16;101513.91;;;22.12;35.81
40766;BME280;26474;52.556;13.420;2022-07-06T12:09:45;101513.69;;;22.23;36.13
40766;BME280;26474;52.556;13.420;2022-07-06T12:12:13;101503.94;;;22.29;36.17
40766;BME280;26474;52.556;13.420;2022-07-06T12:14:41;101508.16;;;22.41;36.60
40766;BME280;26474;52.556;13.420;2022-07-06T12:17:09;101513.59;;;22.15;36.29
40766;BME280;26474;52.556;13.420;2022-07-06T12:19:38;101514.47;;;22.34;35.99
40766;BME280;26474;52.556;13.420;2022-07-06T12:22:05;101520.34;;;22.21;36.14
40766;BME280;26474;52.556;13.420;2022-07-06T12:24:33;101510.47;;;22.10;36.69
40766;BME280;26474;52.556;13.420;2022-07-06T12:27:11;101516.59;;;22.04;36.66
40766;BME280;26474;52.556;13.420;2022-07-06T12:29:38;101507.19;;;22.24;36.42
40766;BME280;26474;52.556;13.420;2022-07-06T12:32:05;101513.81;;;22.22;36.29
40766;BME280;26474;52.556;13.420;2022-07-06T12:34:32;101507.72;;;22.10;35.47
40766;BME280;26474;52.556;13.420;2022-07-06T12:37:06;101505.88;;;22.01;35.76
40766;BME280;26474;52.556;13.420;2022-07-06T12:39:47;101506.19;;;21.98;36.19
40766;BME280;26474;52.556;13.420;2022-07-06T12:42:16;101510.16;;;22.13;35.95
40766;BME280;26474;52.556;13.420;2022-07-06T12:44:50;101502.28;;;22.00;36.33
40766;BME280;26474;52.556;13.420;2022-07-06T12:47:19;101492.72;;;22.05;36.32
40766;BME280;26474;52.556;13.420;2022-07-06T12:49:47;101490.38;;;22.27;36.03
40766;BME280;26474;52.556;13.420;2022-07-06T12:52:15;101498.34;;;22.39;35.77
40766;BME280;26474;52.556;13.420;2022-07-06T12:54:46;101488.88;;;22.15;35.86
40766;BME280;26474;52.556;13.420;2022-07-06T12:57:16;101497.59;;;22.28;35.73
40766;BME280;26474;52.556;13.420;2022-07-06T13:02:24;101497.38;;;22.48;34.75
40766;BME280;26474;52.556;13.420;2022-07-06T13:05:13;101495.00;;;22.53;35.57
40766;BME280;26474;52.556;13.420;2022-07-06T13:07:45;101494.16;;;22.52;35.66